createdAt,value
2023-03-06T00:02:36.908Z,14.87
2023-03-06T00:06:38.199Z,14.75
2023-03-06T00:10:40.396Z,14.69
2023-03-06T00:14:41.756Z,14.59
2023-03-06T00:18:44.011Z,14.61
2023-03-06T00:22:45.909Z,14.46
2023-03-06T00:26:47.252Z,14.41
2023-03-06T00:30:48.562Z,14.38
2023-03-06T00:34:51.383Z,14.13
2023-03-06T00:38:52.713Z,14.35
2023-03-06T00:42:54.016Z,14.12
2023-03-06T00:46:55.339Z,14.34
2023-03-06T00:50:56.621Z,14.50
2023-03-06T00:54:57.895Z,14.44
2023-03-06T00:58:59.200Z,14.37
2023-03-06T01:03:00.547Z,14.39
2023-03-06T01:07:01.902Z,14.44
2023-03-06T01:11:03.358Z,14.35
2023-03-06T01:15:05.346Z,14.32
2023-03-06T01:19:06.742Z,14.21
2023-03-06T01:23:08.109Z,14.22
2023-03-06T01:27:09.530Z,14.06
2023-03-06T01:31:11.225Z,14.25
2023-03-06T01:35:12.978Z,14.33
2023-03-06T01:39:14.353Z,14.21
2023-03-06T01:43:25.666Z,14.25
2023-03-06T01:47:27.493Z,14.30
2023-03-06T01:51:34.625Z,14.40
2023-03-06T01:55:36.810Z,14.38
2023-03-06T01:59:42.211Z,14.39
2023-03-06T02:03:44.156Z,14.41
2023-03-06T02:07:46.709Z,14.25
2023-03-06T02:11:48.082Z,14.34
2023-03-06T02:15:49.480Z,14.43
2023-03-06T02:20:12.087Z,14.10
2023-03-06T02:24:40.703Z,14.20
2023-03-06T02:28:42.389Z,14.19
2023-03-06T02:32:43.743Z,14.04
2023-03-06T02:36:55.491Z,14.01
2023-03-06T02:40:58.062Z,14.09
2023-03-06T02:45:01.765Z,13.81
2023-03-06T02:49:03.094Z,13.74
2023-03-06T02:53:05.850Z,13.92
2023-03-06T02:57:07.188Z,13.95
2023-03-06T03:01:08.771Z,13.98
2023-03-06T03:05:10.148Z,14.03
2023-03-06T03:09:11.594Z,14.08
2023-03-06T03:13:13.174Z,13.83
2023-03-06T03:17:15.105Z,14.07
2023-03-06T03:21:17.195Z,14.09
2023-03-06T03:25:19.976Z,13.94
2023-03-06T03:29:21.301Z,13.91
2023-03-06T03:33:22.623Z,14.01
2023-03-06T03:37:24.032Z,13.99
2023-03-06T03:41:25.641Z,14.01
2023-03-06T03:45:27.148Z,14.18
2023-03-06T03:49:28.488Z,14.13
2023-03-06T03:53:29.790Z,14.08
2023-03-06T03:57:31.161Z,14.26
2023-03-06T04:01:32.705Z,14.17
2023-03-06T04:05:34.131Z,14.21
2023-03-06T04:09:35.549Z,14.00
2023-03-06T04:13:36.888Z,14.03
2023-03-06T04:17:38.172Z,14.09
2023-03-06T04:21:39.549Z,14.27
2023-03-06T04:25:41.193Z,14.25
2023-03-06T04:29:42.568Z,13.89
2023-03-06T04:33:43.848Z,14.22
2023-03-06T04:37:45.194Z,13.97
2023-03-06T04:41:46.509Z,14.13
2023-03-06T04:45:48.081Z,13.96
2023-03-06T04:49:49.405Z,14.22
2023-03-06T04:53:50.722Z,13.63
2023-03-06T04:57:52.148Z,14.20
2023-03-06T05:01:54.250Z,13.92
2023-03-06T05:05:55.700Z,13.86
2023-03-06T05:09:56.986Z,14.17
2023-03-06T05:13:58.331Z,13.97
2023-03-06T05:17:59.718Z,13.80
2023-03-06T05:22:01.116Z,13.88
2023-03-06T05:26:09.353Z,14.02
2023-03-06T05:30:12.753Z,14.32
2023-03-06T05:34:14.874Z,13.93
2023-03-06T05:38:16.766Z,14.00
2023-03-06T05:42:18.470Z,13.87
2023-03-06T05:46:19.890Z,13.96
2023-03-06T05:50:21.335Z,14.01
2023-03-06T05:54:24.361Z,14.13
2023-03-06T05:58:26.336Z,14.00
2023-03-06T06:02:27.636Z,13.96
2023-03-06T06:06:29.030Z,14.05
2023-03-06T06:10:30.378Z,13.72
2023-03-06T06:14:34.134Z,14.05
2023-03-06T06:18:35.450Z,14.00
2023-03-06T06:22:40.526Z,13.87
2023-03-06T06:26:42.475Z,14.23
2023-03-06T06:30:44.031Z,14.09
2023-03-06T06:34:45.359Z,14.28
2023-03-06T06:38:46.998Z,14.30
2023-03-06T06:42:48.373Z,14.08
2023-03-06T06:47:21.264Z,14.21
2023-03-06T06:51:11.574Z,14.28
2023-03-06T06:55:13.411Z,14.36
2023-03-06T06:59:16.945Z,14.26
2023-03-06T07:03:18.746Z,14.05
2023-03-06T07:07:20.052Z,14.28
2023-03-06T07:11:22.155Z,14.19
2023-03-06T07:15:26.727Z,14.33
2023-03-06T07:19:28.149Z,14.44
2023-03-06T07:23:29.617Z,14.35
2023-03-06T07:27:30.966Z,14.23
2023-03-06T07:31:32.386Z,14.13
2023-03-06T07:35:33.941Z,13.34
2023-03-06T07:39:35.457Z,14.48
2023-03-06T07:43:36.919Z,14.69
2023-03-06T07:47:38.813Z,14.33
2023-03-06T07:51:40.270Z,14.26
2023-03-06T07:55:41.595Z,14.72
2023-03-06T07:59:42.908Z,14.85
2023-03-06T08:03:44.664Z,14.59
2023-03-06T08:07:46.114Z,15.03
2023-03-06T08:11:47.565Z,14.64
2023-03-06T08:15:49.263Z,14.36
2023-03-06T08:19:50.613Z,14.78
2023-03-06T08:23:52.481Z,14.91
2023-03-06T08:27:54.077Z,15.05
2023-03-06T08:31:55.454Z,15.22
2023-03-06T08:35:56.792Z,15.36
2023-03-06T08:39:58.637Z,15.33
2023-03-06T08:44:00.109Z,14.67
2023-03-06T08:48:01.467Z,15.08
2023-03-06T08:52:02.741Z,14.80
2023-03-06T08:56:04.527Z,14.85
2023-03-06T09:00:08.868Z,15.02
2023-03-06T09:04:11.629Z,15.27
2023-03-06T09:08:12.969Z,15.06
2023-03-06T09:12:14.356Z,15.17
2023-03-06T09:16:16.130Z,14.54
2023-03-06T09:20:18.510Z,14.55
2023-03-06T09:24:19.878Z,15.42
2023-03-06T09:28:22.139Z,16.01
2023-03-06T09:32:24.232Z,16.15
2023-03-06T09:36:25.569Z,15.95
2023-03-06T09:40:55.079Z,16.14
2023-03-06T09:44:59.961Z,16.68
2023-03-06T09:49:23.180Z,16.30
2023-03-06T09:53:36.420Z,15.73
2023-03-06T09:58:02.697Z,15.56
2023-03-06T10:02:15.950Z,15.30
2023-03-06T10:06:29.724Z,15.60
2023-03-06T10:10:46.725Z,15.19
2023-03-06T10:15:16.101Z,15.77
2023-03-06T10:19:19.950Z,16.22
2023-03-06T10:23:29.166Z,16.85
2023-03-06T10:27:46.190Z,16.69
2023-03-06T10:31:59.482Z,16.53
2023-03-06T10:36:00.881Z,16.13
2023-03-06T10:40:15.691Z,16.15
2023-03-06T10:44:19.263Z,16.11
2023-03-06T10:48:25.064Z,16.26
2023-03-06T10:52:30.590Z,15.70
2023-03-06T10:56:38.811Z,16.23
2023-03-06T11:00:40.191Z,15.97
2023-03-06T11:04:47.187Z,15.88
2023-03-06T11:08:48.537Z,15.89
2023-03-06T11:13:19.095Z,16.10
2023-03-06T11:17:28.809Z,15.84
2023-03-06T11:21:33.300Z,15.65
2023-03-06T11:25:40.657Z,15.55
2023-03-06T11:29:49.314Z,15.48
2023-03-06T11:34:12.052Z,15.88
2023-03-06T11:38:27.186Z,15.69
2023-03-06T11:42:34.271Z,15.78
2023-03-06T11:46:41.713Z,15.99
2023-03-06T11:50:49.139Z,16.04
2023-03-06T11:54:55.742Z,15.83
2023-03-06T11:59:41.591Z,15.67
2023-03-06T12:03:48.945Z,15.07
2023-03-06T12:08:23.113Z,15.45
2023-03-06T12:12:41.188Z,15.76
2023-03-06T12:17:03.918Z,16.13
2023-03-06T12:21:15.317Z,15.81
2023-03-06T12:25:39.429Z,16.06
2023-03-06T12:29:52.922Z,16.19
2023-03-06T12:34:04.414Z,16.39
2023-03-06T12:38:44.854Z,16.12
2023-03-06T12:43:00.448Z,16.33
2023-03-06T12:47:04.877Z,15.68
2023-03-06T12:51:11.010Z,15.77
2023-03-06T12:55:16.687Z,16.23
2023-03-06T12:59:44.133Z,15.61
2023-03-06T13:04:18.745Z,16.13
2023-03-06T13:08:57.046Z,16.20
2023-03-06T13:13:01.106Z,16.37
2023-03-06T13:17:20.685Z,16.40
2023-03-06T13:21:41.037Z,16.00
2023-03-06T13:25:48.596Z,15.65
2023-03-06T13:29:52.298Z,15.86
2023-03-06T13:33:57.283Z,15.98
2023-03-06T13:37:59.778Z,15.70
2023-03-06T13:42:01.324Z,16.18
2023-03-06T13:46:24.666Z,16.28
2023-03-06T13:50:33.060Z,16.06
2023-03-06T13:54:55.477Z,15.77
2023-03-06T13:59:18.141Z,16.37
2023-03-06T14:03:40.293Z,15.82
2023-03-06T14:07:47.037Z,16.00
2023-03-06T14:12:00.604Z,16.77
2023-03-06T14:16:10.012Z,16.48
2023-03-06T14:20:17.858Z,16.83
2023-03-06T14:24:27.849Z,16.78
2023-03-06T14:28:31.068Z,16.73
2023-03-06T14:32:32.595Z,16.53
2023-03-06T14:37:01.988Z,16.65
2023-03-06T14:41:05.286Z,16.76
2023-03-06T14:45:16.551Z,16.57
2023-03-06T14:49:19.906Z,16.66
2023-03-06T14:53:25.205Z,16.80
2023-03-06T14:57:26.810Z,16.46
2023-03-06T15:01:36.178Z,15.96
2023-03-06T15:05:38.254Z,16.30
2023-03-06T15:09:45.527Z,16.86
2023-03-06T15:14:00.973Z,16.42
2023-03-06T15:18:02.692Z,16.52
2023-03-06T15:22:04.045Z,16.68
2023-03-06T15:26:22.563Z,16.33
2023-03-06T15:30:37.047Z,16.75
2023-03-06T15:34:38.604Z,16.70
2023-03-06T15:38:45.384Z,16.62
2023-03-06T15:42:46.820Z,16.35
2023-03-06T15:46:49.981Z,16.14
2023-03-06T15:50:53.237Z,16.44
2023-03-06T15:54:54.558Z,16.48
2023-03-06T15:58:57.894Z,16.50
2023-03-06T16:02:59.307Z,16.59
2023-03-06T16:07:00.612Z,16.38
2023-03-06T16:11:01.955Z,16.30
2023-03-06T16:15:04.150Z,16.48
2023-03-06T16:19:23.796Z,16.00
2023-03-06T16:23:26.841Z,16.29
2023-03-06T16:27:28.908Z,15.97
2023-03-06T16:31:30.266Z,16.12
2023-03-06T16:35:31.905Z,15.88
2023-03-06T16:39:33.433Z,16.02
2023-03-06T16:43:34.886Z,15.89
2023-03-06T16:47:36.236Z,15.96
2023-03-06T16:51:39.637Z,15.96
2023-03-06T16:55:41.173Z,15.84
2023-03-06T16:59:42.545Z,15.69
2023-03-06T17:03:44.499Z,15.99
2023-03-06T17:07:46.311Z,16.03
2023-03-06T17:11:47.810Z,16.02
2023-03-06T17:15:56.414Z,15.96
2023-03-06T17:19:58.103Z,15.97
2023-03-06T17:24:01.596Z,15.89
2023-03-06T17:28:03.069Z,15.88
2023-03-06T17:32:04.530Z,15.88
2023-03-06T17:36:06.328Z,15.41
2023-03-06T17:40:09.615Z,15.54
2023-03-06T17:44:12.017Z,15.14
2023-03-06T17:48:14.083Z,15.22
2023-03-06T17:52:15.411Z,15.15
2023-03-06T17:56:16.725Z,15.43
2023-03-06T18:00:18.757Z,15.28
2023-03-06T18:04:20.030Z,14.96
2023-03-06T18:08:21.317Z,15.37
2023-03-06T18:12:22.711Z,15.49
2023-03-06T18:16:25.900Z,15.36
2023-03-06T18:20:27.484Z,15.37
2023-03-06T18:24:28.846Z,15.48
2023-03-06T18:28:30.707Z,15.49
2023-03-06T18:32:32.179Z,15.58
2023-03-06T18:36:34.350Z,15.66
2023-03-06T18:40:35.683Z,15.51
2023-03-06T18:44:37.040Z,15.74
2023-03-06T18:48:38.389Z,15.71
2023-03-06T18:52:39.701Z,15.56
2023-03-06T18:56:43.987Z,15.66
2023-03-06T19:00:45.775Z,15.42
2023-03-06T19:04:47.221Z,15.40
2023-03-06T19:08:48.576Z,15.42
2023-03-06T19:12:49.919Z,15.44
2023-03-06T19:16:51.275Z,15.44
2023-03-06T19:20:53.216Z,15.73
2023-03-06T19:24:54.559Z,15.12
2023-03-06T19:28:55.996Z,15.40
2023-03-06T19:32:57.429Z,15.32
2023-03-06T19:36:58.827Z,15.22
2023-03-06T19:41:03.363Z,15.32
2023-03-06T19:45:05.935Z,15.44
2023-03-06T19:49:11.943Z,15.13
2023-03-06T19:53:13.694Z,14.67
2023-03-06T19:57:15.134Z,14.85
2023-03-06T20:01:19.082Z,15.13
2023-03-06T20:05:20.436Z,15.43
2023-03-06T20:09:21.816Z,15.71
2023-03-06T20:13:23.242Z,15.49
2023-03-06T20:17:24.594Z,15.39
2023-03-06T20:21:30.765Z,14.91
2023-03-06T20:25:35.264Z,15.02
2023-03-06T20:29:36.570Z,14.75
2023-03-06T20:33:37.977Z,14.80
2023-03-06T20:37:41.056Z,15.38
2023-03-06T20:41:43.433Z,15.48
2023-03-06T20:45:56.246Z,14.92
2023-03-06T20:49:57.615Z,15.27
2023-03-06T20:54:00.991Z,14.56
2023-03-06T20:58:02.331Z,15.10
2023-03-06T21:02:03.908Z,14.86
2023-03-06T21:06:05.441Z,14.14
2023-03-06T21:10:07.647Z,14.27
2023-03-06T21:14:09.057Z,14.69
2023-03-06T21:18:11.363Z,14.92
2023-03-06T21:22:13.607Z,14.27
2023-03-06T21:26:26.983Z,13.79
2023-03-06T21:30:29.426Z,14.24
2023-03-06T21:34:30.734Z,14.65
2023-03-06T21:38:32.987Z,15.02
2023-03-06T21:42:37.371Z,14.70
2023-03-06T21:46:38.796Z,14.50
2023-03-06T21:50:40.962Z,14.85
2023-03-06T21:54:43.322Z,15.41
2023-03-06T21:58:45.577Z,14.91
2023-03-06T22:02:47.209Z,15.30
2023-03-06T22:06:48.526Z,14.65
2023-03-06T22:10:49.857Z,14.95
2023-03-06T22:14:51.669Z,15.45
2023-03-06T22:18:53.129Z,15.10
2023-03-06T22:22:54.525Z,15.27
2023-03-06T22:26:55.843Z,15.18
2023-03-06T22:31:05.518Z,15.48
2023-03-06T22:35:07.165Z,15.20
2023-03-06T22:39:11.986Z,15.49
2023-03-06T22:43:13.276Z,15.51
2023-03-06T22:47:14.660Z,15.44
2023-03-06T22:51:20.538Z,15.47
2023-03-06T22:55:21.930Z,15.51
2023-03-06T22:59:23.249Z,15.82
2023-03-06T23:03:24.585Z,15.43
2023-03-06T23:07:25.912Z,15.58
2023-03-06T23:11:28.830Z,15.76
2023-03-06T23:15:30.256Z,15.61
2023-03-06T23:19:31.606Z,15.55
2023-03-06T23:23:32.983Z,15.50
2023-03-06T23:27:35.986Z,15.36
2023-03-06T23:31:37.357Z,15.40
2023-03-06T23:35:39.524Z,14.90
2023-03-06T23:39:40.948Z,14.56
2023-03-06T23:43:42.694Z,15.05
2023-03-06T23:47:43.988Z,15.31
2023-03-06T23:51:45.546Z,15.24
2023-03-06T23:55:49.049Z,15.07
2023-03-06T23:59:50.426Z,15.16
